createdAt,value
2022-12-04T00:03:23.503Z,80.91
2022-12-04T00:06:47.706Z,80.64
2022-12-04T00:10:09.867Z,80.94
2022-12-04T00:13:33.907Z,80.75
2022-12-04T00:16:55.596Z,81.12
2022-12-04T00:20:17.249Z,81.57
2022-12-04T00:23:39.632Z,81.13
2022-12-04T00:27:01.398Z,80.52
2022-12-04T00:30:22.923Z,80.71
2022-12-04T00:33:44.585Z,80.90
2022-12-04T00:37:06.162Z,81.35
2022-12-04T00:40:27.742Z,81.26
2022-12-04T00:43:52.691Z,81.39
2022-12-04T00:47:17.202Z,81.80
2022-12-04T00:50:38.931Z,81.28
2022-12-04T00:54:00.522Z,81.17
2022-12-04T00:57:24.283Z,81.61
2022-12-04T01:00:48.852Z,81.72
2022-12-04T01:04:10.425Z,81.52
2022-12-04T01:07:32.210Z,81.66
2022-12-04T01:10:53.804Z,81.56
2022-12-04T01:14:15.370Z,81.42
2022-12-04T01:17:37.222Z,81.21
2022-12-04T01:20:58.777Z,81.05
2022-12-04T01:24:22.465Z,80.92
2022-12-04T01:27:44.009Z,80.71
2022-12-04T01:31:11.000Z,80.93
2022-12-04T01:34:33.530Z,80.83
2022-12-04T01:37:59.857Z,80.77
2022-12-04T01:41:27.026Z,80.43
2022-12-04T01:45:42.928Z,81.10
2022-12-04T01:49:09.323Z,81.69
2022-12-04T01:52:31.134Z,80.94
2022-12-04T01:55:53.153Z,81.68
2022-12-04T01:59:21.883Z,82.09
2022-12-04T02:02:50.249Z,82.29
2022-12-04T02:06:11.870Z,81.97
2022-12-04T02:09:34.820Z,82.32
2022-12-04T02:13:05.504Z,81.70
2022-12-04T02:16:36.890Z,81.76
2022-12-04T02:20:28.410Z,81.91
2022-12-04T02:24:20.303Z,81.52
2022-12-04T02:27:41.820Z,81.99
2022-12-04T02:31:12.385Z,81.65
2022-12-04T02:35:04.184Z,82.01
2022-12-04T02:38:45.173Z,82.71
2022-12-04T02:42:33.381Z,82.64
2022-12-04T02:46:19.181Z,82.26
2022-12-04T02:49:46.906Z,82.63
2022-12-04T02:53:29.111Z,83.41
2022-12-04T02:56:54.009Z,83.10
2022-12-04T03:00:16.524Z,82.80
2022-12-04T03:03:38.320Z,83.23
2022-12-04T03:07:07.198Z,83.70
2022-12-04T03:10:31.754Z,84.10
2022-12-04T03:14:00.135Z,83.64
2022-12-04T03:17:35.059Z,83.29
2022-12-04T03:21:02.166Z,83.43
2022-12-04T03:24:27.040Z,82.91
2022-12-04T03:28:17.175Z,83.23
2022-12-04T03:32:07.299Z,83.39
2022-12-04T03:36:13.869Z,83.61
2022-12-04T03:39:48.792Z,83.64
2022-12-04T03:43:19.627Z,83.97
2022-12-04T03:46:50.222Z,83.79
2022-12-04T03:50:32.278Z,83.34
2022-12-04T03:53:58.157Z,83.19
2022-12-04T03:57:27.757Z,83.59
2022-12-04T04:00:55.473Z,83.56
2022-12-04T04:04:27.073Z,83.77
2022-12-04T04:07:55.994Z,84.22
2022-12-04T04:11:42.692Z,85.21
2022-12-04T04:15:28.460Z,85.03
2022-12-04T04:19:11.485Z,84.90
2022-12-04T04:22:56.025Z,85.33
2022-12-04T04:26:22.042Z,85.66
2022-12-04T04:29:51.870Z,85.54
2022-12-04T04:33:16.618Z,85.16
2022-12-04T04:36:41.054Z,85.28
2022-12-04T04:40:32.382Z,84.72
2022-12-04T04:44:04.812Z,84.51
2022-12-04T04:47:49.325Z,84.91
2022-12-04T04:51:14.326Z,84.53
2022-12-04T04:54:38.910Z,84.01
2022-12-04T04:58:14.834Z,84.29
2022-12-04T05:01:40.406Z,84.05
2022-12-04T05:05:02.095Z,84.21
2022-12-04T05:08:24.197Z,83.46
2022-12-04T05:11:48.254Z,83.91
2022-12-04T05:15:10.764Z,84.62
2022-12-04T05:18:33.726Z,84.06
2022-12-04T05:21:57.264Z,83.87
2022-12-04T05:25:18.768Z,84.22
2022-12-04T05:28:42.354Z,83.64
2022-12-04T05:32:04.134Z,84.27
2022-12-04T05:35:25.707Z,84.27
2022-12-04T05:38:49.484Z,84.61
2022-12-04T05:42:11.347Z,85.02
2022-12-04T05:45:35.365Z,84.47
2022-12-04T05:48:57.641Z,85.62
2022-12-04T05:52:21.640Z,86.00
2022-12-04T05:55:43.203Z,85.73
2022-12-04T05:59:07.025Z,86.21
2022-12-04T06:02:31.436Z,85.87
2022-12-04T06:05:55.377Z,85.76
2022-12-04T06:09:19.274Z,86.31
2022-12-04T06:12:43.010Z,84.77
2022-12-04T06:16:04.941Z,84.69
2022-12-04T06:19:26.506Z,84.38
2022-12-04T06:22:50.286Z,85.23
2022-12-04T06:26:11.818Z,86.11
2022-12-04T06:29:33.418Z,86.36
2022-12-04T06:32:57.491Z,86.67
2022-12-04T06:36:22.340Z,86.76
2022-12-04T06:39:43.905Z,86.19
2022-12-04T06:43:06.547Z,86.16
2022-12-04T06:46:33.482Z,85.33
2022-12-04T06:49:57.491Z,85.31
2022-12-04T06:53:21.651Z,86.58
2022-12-04T06:56:45.930Z,85.62
2022-12-04T07:00:08.203Z,84.71
2022-12-04T07:03:30.176Z,84.76
2022-12-04T07:06:51.678Z,84.68
2022-12-04T07:10:16.246Z,85.13
2022-12-04T07:13:38.069Z,85.23
2022-12-04T07:17:02.011Z,85.39
2022-12-04T07:20:24.175Z,86.17
2022-12-04T07:23:49.959Z,86.25
2022-12-04T07:27:11.719Z,85.67
2022-12-04T07:30:37.038Z,85.39
2022-12-04T07:33:59.140Z,85.59
2022-12-04T07:37:20.676Z,84.68
2022-12-04T07:40:44.868Z,85.13
2022-12-04T07:44:06.423Z,84.74
2022-12-04T07:47:27.947Z,84.06
2022-12-04T07:50:49.513Z,83.20
2022-12-04T07:54:11.078Z,81.97
2022-12-04T07:57:33.381Z,80.72
2022-12-04T08:00:54.954Z,78.49
2022-12-04T08:04:16.903Z,78.31
2022-12-04T08:07:45.670Z,76.53
2022-12-04T08:11:07.967Z,76.72
2022-12-04T08:14:29.514Z,75.79
2022-12-04T08:17:51.078Z,77.26
2022-12-04T08:21:15.879Z,78.27
2022-12-04T08:24:37.529Z,77.00
2022-12-04T08:27:59.146Z,77.95
2022-12-04T08:31:26.149Z,77.64
2022-12-04T08:34:55.732Z,77.25
2022-12-04T08:38:17.729Z,77.42
2022-12-04T08:41:39.217Z,76.09
2022-12-04T08:45:03.498Z,76.69
2022-12-04T08:48:25.414Z,76.64
2022-12-04T08:51:46.989Z,75.60
2022-12-04T08:55:11.258Z,76.34
2022-12-04T08:58:36.232Z,77.14
2022-12-04T09:01:57.809Z,76.66
2022-12-04T09:05:21.725Z,76.32
2022-12-04T09:08:46.366Z,76.24
2022-12-04T09:12:07.962Z,75.62
2022-12-04T09:15:29.845Z,75.05
2022-12-04T09:18:51.558Z,77.01
2022-12-04T09:22:16.065Z,75.67
2022-12-04T09:25:37.996Z,76.48
2022-12-04T09:29:01.657Z,76.14
2022-12-04T09:32:23.281Z,75.48
2022-12-04T09:35:44.831Z,75.76
2022-12-04T09:39:10.367Z,75.71
2022-12-04T09:42:40.111Z,74.42
2022-12-04T09:46:11.330Z,72.90
2022-12-04T09:49:53.810Z,71.93
2022-12-04T09:53:22.699Z,71.35
2022-12-04T09:56:54.804Z,70.42
2022-12-04T10:00:22.658Z,70.65
2022-12-04T10:03:46.602Z,68.11
2022-12-04T10:07:18.780Z,66.45
2022-12-04T10:10:42.660Z,65.44
2022-12-04T10:14:22.269Z,64.86
2022-12-04T10:18:17.891Z,64.90
2022-12-04T10:21:47.684Z,64.19
2022-12-04T10:25:15.157Z,63.66
2022-12-04T10:28:43.603Z,63.09
2022-12-04T10:32:25.131Z,60.24
2022-12-04T10:35:53.113Z,60.20
2022-12-04T10:39:35.390Z,61.05
2022-12-04T10:43:25.167Z,59.89
2022-12-04T10:46:50.807Z,60.14
2022-12-04T10:50:20.687Z,57.51
2022-12-04T10:53:42.585Z,58.38
2022-12-04T10:57:05.835Z,57.35
2022-12-04T11:00:35.926Z,57.96
2022-12-04T11:04:08.776Z,57.68
2022-12-04T11:07:32.344Z,57.14
2022-12-04T11:11:07.462Z,57.11
2022-12-04T11:14:30.551Z,57.22
2022-12-04T11:17:52.854Z,56.61
2022-12-04T11:21:29.771Z,55.58
2022-12-04T11:24:57.909Z,56.56
2022-12-04T11:28:42.736Z,55.47
2022-12-04T11:32:17.021Z,55.89
2022-12-04T11:35:39.827Z,58.00
2022-12-04T11:39:06.903Z,57.12
2022-12-04T11:42:33.268Z,55.22
2022-12-04T11:46:06.996Z,56.09
2022-12-04T11:49:33.337Z,56.04
2022-12-04T11:53:13.501Z,57.63
2022-12-04T11:56:40.439Z,56.98
2022-12-04T12:00:05.178Z,55.45
2022-12-04T12:03:32.245Z,55.90
2022-12-04T12:07:30.557Z,56.06
2022-12-04T12:11:00.858Z,58.36
2022-12-04T12:14:28.855Z,58.77
2022-12-04T12:18:16.500Z,58.16
2022-12-04T12:22:09.783Z,59.12
2022-12-04T12:25:52.452Z,58.32
2022-12-04T12:30:05.466Z,59.26
2022-12-04T12:33:34.678Z,60.39
2022-12-04T12:37:01.171Z,61.18
2022-12-04T12:40:49.068Z,61.55
2022-12-04T12:44:34.654Z,62.10
2022-12-04T12:48:01.847Z,61.54
2022-12-04T12:51:30.478Z,61.48
2022-12-04T12:54:57.722Z,60.46
2022-12-04T12:58:29.306Z,60.08
2022-12-04T13:02:00.530Z,59.84
2022-12-04T13:05:29.552Z,59.71
2022-12-04T13:09:02.634Z,60.44
2022-12-04T13:12:27.421Z,61.60
2022-12-04T13:15:55.265Z,62.08
2022-12-04T13:19:31.330Z,62.54
2022-12-04T13:23:15.017Z,63.77
2022-12-04T13:26:49.029Z,64.22
2022-12-04T13:30:20.192Z,64.79
2022-12-04T13:33:50.855Z,65.85
2022-12-04T13:37:36.323Z,66.61
2022-12-04T13:41:02.134Z,67.12
2022-12-04T13:44:27.345Z,67.93
2022-12-04T13:47:58.625Z,68.06
2022-12-04T13:51:20.103Z,68.45
2022-12-04T13:54:41.786Z,68.81
2022-12-04T13:58:26.136Z,68.70
2022-12-04T14:01:53.896Z,69.27
2022-12-04T14:05:15.658Z,69.69
2022-12-04T14:08:39.587Z,70.67
2022-12-04T14:12:06.172Z,70.88
2022-12-04T14:15:32.609Z,70.63
2022-12-04T14:18:59.601Z,71.80
2022-12-04T14:22:31.533Z,71.10
2022-12-04T14:25:59.069Z,71.43
2022-12-04T14:29:32.747Z,72.35
2022-12-04T14:33:03.235Z,71.82
2022-12-04T14:36:28.166Z,72.59
2022-12-04T14:39:51.367Z,72.07
2022-12-04T14:43:44.997Z,72.60
2022-12-04T14:47:34.843Z,72.29
2022-12-04T14:51:14.540Z,72.80
2022-12-04T14:54:36.007Z,72.60
2022-12-04T14:58:21.422Z,72.59
2022-12-04T15:01:43.032Z,73.57
2022-12-04T15:05:09.717Z,74.00
2022-12-04T15:08:31.379Z,73.79
2022-12-04T15:12:13.981Z,73.82
2022-12-04T15:15:38.297Z,74.33
2022-12-04T15:19:00.625Z,73.67
2022-12-04T15:22:28.239Z,74.52
2022-12-04T15:25:54.073Z,74.13
2022-12-04T15:29:21.709Z,74.59
2022-12-04T15:32:43.737Z,74.44
2022-12-04T15:36:11.681Z,74.90
2022-12-04T15:39:35.559Z,75.65
2022-12-04T15:43:14.262Z,75.64
2022-12-04T15:46:39.066Z,75.89
2022-12-04T15:50:15.728Z,75.19
2022-12-04T15:53:39.919Z,75.22
2022-12-04T15:57:07.294Z,76.02
2022-12-04T16:00:31.099Z,76.04
2022-12-04T16:03:57.558Z,75.83
2022-12-04T16:07:25.592Z,76.36
2022-12-04T16:10:57.696Z,75.42
2022-12-04T16:14:21.710Z,75.82
2022-12-04T16:17:43.234Z,76.66
2022-12-04T16:21:11.478Z,76.28
2022-12-04T16:24:35.435Z,76.34
2022-12-04T16:28:00.944Z,76.57
2022-12-04T16:31:24.066Z,76.32
2022-12-04T16:34:48.721Z,77.00
2022-12-04T16:38:16.448Z,76.48
2022-12-04T16:41:38.055Z,76.13
2022-12-04T16:44:59.850Z,76.13
2022-12-04T16:48:24.027Z,76.39
2022-12-04T16:51:49.875Z,75.54
2022-12-04T16:55:26.639Z,75.44
2022-12-04T16:58:48.639Z,75.42
2022-12-04T17:02:24.553Z,75.99
2022-12-04T17:05:48.612Z,76.24
2022-12-04T17:09:13.205Z,76.72
2022-12-04T17:12:37.235Z,76.06
2022-12-04T17:16:01.688Z,76.01
2022-12-04T17:19:28.452Z,76.05
2022-12-04T17:22:50.248Z,77.11
2022-12-04T17:26:14.814Z,76.97
2022-12-04T17:29:36.574Z,76.82
2022-12-04T17:33:00.528Z,76.69
2022-12-04T17:36:25.119Z,77.18
2022-12-04T17:39:46.923Z,77.14
2022-12-04T17:43:10.939Z,77.23
2022-12-04T17:46:32.678Z,77.26
2022-12-04T17:49:56.622Z,77.90
2022-12-04T17:53:20.789Z,77.63
2022-12-04T17:56:47.473Z,78.25
2022-12-04T18:00:11.119Z,77.39
2022-12-04T18:03:35.454Z,77.83
2022-12-04T18:06:57.053Z,78.13
2022-12-04T18:10:18.611Z,78.57
2022-12-04T18:13:40.179Z,78.12
2022-12-04T18:17:02.768Z,78.55
2022-12-04T18:20:28.923Z,78.79
2022-12-04T18:23:50.875Z,78.53
2022-12-04T18:27:17.323Z,79.15
2022-12-04T18:30:39.980Z,79.06
2022-12-04T18:34:04.714Z,79.08
2022-12-04T18:37:26.282Z,78.59
2022-12-04T18:40:47.832Z,78.47
2022-12-04T18:44:15.210Z,77.31
2022-12-04T18:47:36.806Z,77.13
2022-12-04T18:50:58.436Z,77.29
2022-12-04T18:54:23.939Z,77.64
2022-12-04T18:57:45.502Z,77.72
2022-12-04T19:01:12.262Z,78.28
2022-12-04T19:04:33.885Z,78.00
2022-12-04T19:07:57.517Z,77.65
2022-12-04T19:11:19.323Z,77.25
2022-12-04T19:14:40.877Z,77.99
2022-12-04T19:18:05.871Z,78.21
2022-12-04T19:21:29.947Z,78.35
2022-12-04T19:24:51.471Z,77.32
2022-12-04T19:28:13.038Z,76.81
2022-12-04T19:31:37.627Z,77.05
2022-12-04T19:34:59.225Z,84.70
2022-12-04T19:38:20.749Z,84.46
2022-12-04T19:41:47.287Z,78.96
2022-12-04T19:45:09.223Z,78.28
2022-12-04T19:48:33.278Z,76.72
2022-12-04T19:51:57.306Z,74.54
2022-12-04T19:55:18.822Z,74.40
2022-12-04T19:58:40.764Z,75.19
2022-12-04T20:02:05.352Z,75.87
2022-12-04T20:05:26.977Z,75.81
2022-12-04T20:08:54.211Z,88.59
2022-12-04T20:12:15.756Z,78.27
2022-12-04T20:15:38.510Z,82.23
2022-12-04T20:19:04.364Z,82.16
2022-12-04T20:22:30.885Z,75.79
2022-12-04T20:25:52.480Z,76.44
2022-12-04T20:29:16.246Z,75.59
2022-12-04T20:32:37.866Z,78.46
2022-12-04T20:36:00.740Z,78.14
2022-12-04T20:39:22.468Z,76.92
2022-12-04T20:42:44.107Z,75.93
2022-12-04T20:46:22.868Z,79.17
2022-12-04T20:49:47.408Z,81.64
2022-12-04T20:53:09.084Z,80.09
2022-12-04T20:56:34.253Z,75.06
2022-12-04T20:59:56.104Z,78.15
2022-12-04T21:03:17.868Z,80.07
2022-12-04T21:06:40.924Z,73.66
2022-12-04T21:10:03.540Z,75.53
2022-12-04T21:13:43.514Z,76.00
2022-12-04T21:17:09.531Z,77.56
2022-12-04T21:20:31.381Z,77.18
2022-12-04T21:23:53.229Z,78.52
2022-12-04T21:27:20.686Z,83.13
2022-12-04T21:30:44.916Z,79.70
2022-12-04T21:34:11.596Z,84.23
2022-12-04T21:37:35.464Z,81.11
2022-12-04T21:40:57.046Z,78.01
2022-12-04T21:44:20.110Z,79.91
2022-12-04T21:47:43.841Z,78.22
2022-12-04T21:51:21.224Z,88.15
2022-12-04T21:54:56.800Z,83.26
2022-12-04T21:58:20.444Z,78.30
2022-12-04T22:01:42.232Z,76.62
2022-12-04T22:05:06.378Z,75.03
2022-12-04T22:08:32.926Z,77.73
2022-12-04T22:11:54.512Z,78.96
2022-12-04T22:15:16.251Z,79.01
2022-12-04T22:18:38.475Z,75.42
2022-12-04T22:22:00.033Z,73.98
2022-12-04T22:25:21.598Z,74.27
2022-12-04T22:28:43.633Z,73.64
2022-12-04T22:32:05.179Z,74.47
2022-12-04T22:35:26.797Z,74.35
2022-12-04T22:39:08.023Z,74.79
2022-12-04T22:42:30.390Z,75.09
2022-12-04T22:45:51.928Z,75.21
2022-12-04T22:49:13.505Z,75.24
2022-12-04T22:52:40.073Z,76.22
2022-12-04T22:56:09.795Z,76.26
2022-12-04T22:59:33.390Z,76.33
2022-12-04T23:02:54.978Z,77.15
2022-12-04T23:06:18.758Z,77.85
2022-12-04T23:09:40.309Z,78.31
2022-12-04T23:13:04.476Z,79.29
2022-12-04T23:16:26.998Z,78.66
2022-12-04T23:19:50.780Z,78.24
2022-12-04T23:23:12.354Z,78.44
2022-12-04T23:26:43.002Z,78.44
2022-12-04T23:30:05.666Z,77.77
2022-12-04T23:33:27.644Z,78.73
2022-12-04T23:36:54.023Z,78.95
2022-12-04T23:40:20.742Z,78.57
2022-12-04T23:43:45.340Z,78.14
2022-12-04T23:47:09.193Z,78.48
2022-12-04T23:50:33.132Z,79.01
2022-12-04T23:53:57.226Z,78.90
2022-12-04T23:57:21.810Z,79.13
